createdAt,value
2022-08-22T00:01:07.058Z,22.97
2022-08-22T00:02:20.396Z,22.97
2022-08-22T00:02:43.366Z,23.91
2022-08-22T00:02:48.855Z,24.03
2022-08-22T00:02:53.247Z,24.29
2022-08-22T00:02:54.356Z,23.79
2022-08-22T00:02:57.968Z,23.09
2022-08-22T00:02:58.998Z,23.32
2022-08-22T00:03:01.453Z,23.81
2022-08-22T00:03:06.692Z,23.25
2022-08-22T00:03:35.015Z,22.96
2022-08-22T00:04:48.282Z,22.96
2022-08-22T00:06:00.770Z,22.96
2022-08-22T00:07:30.554Z,22.96
2022-08-22T00:09:06.736Z,22.96
2022-08-22T00:10:21.019Z,22.96
2022-08-22T00:11:37.364Z,22.95
2022-08-22T00:12:59.565Z,22.94
2022-08-22T00:14:16.820Z,22.93
2022-08-22T00:15:42.122Z,22.93
2022-08-22T00:16:43.797Z,22.93
2022-08-22T00:18:09.744Z,22.93
2022-08-22T00:19:25.566Z,22.94
2022-08-22T00:20:35.326Z,22.94
2022-08-22T00:21:50.733Z,22.93
2022-08-22T00:23:12.216Z,22.92
2022-08-22T00:24:28.095Z,22.93
2022-08-22T00:25:41.387Z,22.92
2022-08-22T00:26:48.452Z,22.92
2022-08-22T00:28:14.662Z,22.92
2022-08-22T00:29:21.302Z,22.91
2022-08-22T00:30:26.404Z,22.91
2022-08-22T00:31:33.123Z,22.91
2022-08-22T00:32:48.933Z,22.90
2022-08-22T00:34:11.966Z,22.91
2022-08-22T00:35:18.720Z,22.91
2022-08-22T00:36:50.478Z,22.91
2022-08-22T00:38:12.496Z,22.91
2022-08-22T00:39:40.608Z,22.89
2022-08-22T00:40:58.666Z,22.88
2022-08-22T00:42:14.624Z,22.86
2022-08-22T00:43:40.874Z,22.84
2022-08-22T00:44:50.716Z,22.84
2022-08-22T00:46:14.035Z,22.82
2022-08-22T00:47:29.170Z,22.82
2022-08-22T00:48:45.102Z,22.80
2022-08-22T00:50:11.256Z,22.80
2022-08-22T00:51:17.947Z,22.79
2022-08-22T00:52:39.490Z,22.79
2022-08-22T00:54:18.193Z,22.79
2022-08-22T00:55:34.918Z,22.78
2022-08-22T00:57:07.388Z,22.77
2022-08-22T00:58:30.503Z,22.76
2022-08-22T01:00:05.258Z,22.74
2022-08-22T01:01:11.961Z,22.72
2022-08-22T01:02:24.351Z,22.71
2022-08-22T01:03:43.148Z,22.71
2022-08-22T01:04:50.534Z,22.71
2022-08-22T01:06:18.224Z,22.70
2022-08-22T01:07:38.003Z,22.70
2022-08-22T01:09:19.915Z,22.69
2022-08-22T01:10:43.112Z,22.67
2022-08-22T01:12:01.418Z,22.66
2022-08-22T01:13:14.186Z,22.64
2022-08-22T01:14:43.666Z,22.62
2022-08-22T01:15:49.858Z,22.62
2022-08-22T01:17:19.449Z,22.61
2022-08-22T01:18:38.242Z,22.59
2022-08-22T01:20:04.886Z,22.58
2022-08-22T01:21:28.129Z,22.56
2022-08-22T01:22:56.060Z,22.56
2022-08-22T01:24:17.962Z,22.55
2022-08-22T01:25:32.162Z,22.53
2022-08-22T01:26:54.181Z,22.52
2022-08-22T01:28:30.881Z,22.50
2022-08-22T01:30:03.538Z,22.50
2022-08-22T01:33:02.977Z,22.59
2022-08-22T01:34:27.742Z,22.48
2022-08-22T01:35:54.107Z,22.46
2022-08-22T01:37:09.565Z,22.48
2022-08-22T01:38:17.529Z,22.47
2022-08-22T01:39:42.050Z,22.46
2022-08-22T01:40:54.699Z,22.46
2022-08-22T01:42:22.480Z,22.46
2022-08-22T01:43:59.715Z,22.47
2022-08-22T01:45:11.717Z,22.47
2022-08-22T01:46:33.742Z,22.46
2022-08-22T01:47:46.672Z,22.46
2022-08-22T01:48:56.501Z,22.46
2022-08-22T01:50:15.380Z,22.48
2022-08-22T01:52:51.371Z,22.59
2022-08-22T01:54:04.161Z,22.49
2022-08-22T01:55:22.956Z,22.48
2022-08-22T01:56:30.175Z,22.49
2022-08-22T01:57:36.853Z,22.49
2022-08-22T01:58:58.815Z,22.51
2022-08-22T02:00:09.370Z,22.51
2022-08-22T02:01:26.663Z,22.51
2022-08-22T02:02:36.212Z,22.51
2022-08-22T02:03:59.902Z,22.51
2022-08-22T02:05:06.883Z,22.52
2022-08-22T02:06:19.774Z,22.51
2022-08-22T02:07:46.008Z,22.51
2022-08-22T02:08:52.681Z,22.50
2022-08-22T02:10:14.604Z,22.50
2022-08-22T02:11:56.037Z,22.50
2022-08-22T02:13:06.301Z,22.49
2022-08-22T02:14:32.568Z,22.48
2022-08-22T02:15:44.000Z,22.46
2022-08-22T02:16:51.044Z,22.45
2022-08-22T02:18:06.547Z,22.45
2022-08-22T02:19:19.297Z,22.44
2022-08-22T02:20:29.070Z,22.42
2022-08-22T02:21:38.783Z,22.41
2022-08-22T02:22:54.721Z,22.42
2022-08-22T02:24:04.230Z,22.40
2022-08-22T02:25:17.158Z,22.41
2022-08-22T02:26:26.868Z,22.39
2022-08-22T02:27:59.439Z,22.38
2022-08-22T02:29:17.761Z,22.37
2022-08-22T02:30:24.832Z,22.36
2022-08-22T02:31:40.609Z,22.35
2022-08-22T02:32:47.368Z,22.35
2022-08-22T02:33:54.128Z,22.34
2022-08-22T02:35:13.681Z,22.33
2022-08-22T02:36:44.339Z,22.33
2022-08-22T02:37:59.836Z,22.32
2022-08-22T02:39:09.741Z,22.32
2022-08-22T02:40:22.806Z,22.30
2022-08-22T02:41:50.520Z,22.29
2022-08-22T02:43:15.213Z,22.28
2022-08-22T02:44:37.053Z,22.27
2022-08-22T02:45:52.770Z,22.24
2022-08-22T02:47:08.493Z,22.23
2022-08-22T02:48:33.464Z,22.22
2022-08-22T02:49:52.320Z,22.21
2022-08-22T02:51:05.159Z,22.20
2022-08-22T02:52:14.615Z,22.19
2022-08-22T02:53:30.087Z,22.19
2022-08-22T02:54:56.073Z,22.18
2022-08-22T02:56:05.757Z,22.17
2022-08-22T02:57:28.754Z,22.16
2022-08-22T02:58:49.845Z,22.16
2022-08-22T03:00:04.389Z,22.15
2022-08-22T03:01:16.674Z,22.14
2022-08-22T03:02:29.264Z,22.13
2022-08-22T03:03:35.922Z,22.12
2022-08-22T03:04:48.348Z,22.12
2022-08-22T03:06:04.813Z,22.13
2022-08-22T03:07:23.353Z,22.11
2022-08-22T03:08:30.535Z,22.12
2022-08-22T03:09:37.182Z,22.11
2022-08-22T03:10:56.099Z,22.10
2022-08-22T03:12:25.310Z,22.10
2022-08-22T03:14:05.276Z,22.11
2022-08-22T03:15:20.847Z,22.09
2022-08-22T03:16:30.824Z,22.07
2022-08-22T03:17:37.866Z,22.05
2022-08-22T03:18:50.518Z,22.05
2022-08-22T03:20:03.787Z,22.05
2022-08-22T03:21:34.832Z,22.05
2022-08-22T03:22:53.774Z,22.05
2022-08-22T03:25:39.218Z,22.16
2022-08-22T03:26:54.930Z,22.04
2022-08-22T03:28:01.616Z,22.04
2022-08-22T03:29:08.459Z,22.03
2022-08-22T03:30:21.394Z,22.04
2022-08-22T03:31:25.511Z,22.04
2022-08-22T03:32:48.634Z,22.05
2022-08-22T03:34:19.758Z,22.04
2022-08-22T03:35:26.449Z,22.05
2022-08-22T03:36:31.364Z,22.04
2022-08-22T03:37:41.211Z,22.04
2022-08-22T03:39:17.227Z,22.04
2022-08-22T03:40:48.639Z,22.04
2022-08-22T03:42:01.965Z,22.05
2022-08-22T03:43:11.732Z,22.04
2022-08-22T03:44:30.211Z,22.05
2022-08-22T03:45:51.993Z,22.04
2022-08-22T03:47:21.470Z,22.04
2022-08-22T03:48:58.218Z,22.04
2022-08-22T03:50:24.427Z,22.05
2022-08-22T03:51:31.079Z,22.04
2022-08-22T03:53:04.877Z,22.03
2022-08-22T03:54:11.569Z,22.03
2022-08-22T03:55:24.102Z,22.03
2022-08-22T03:56:49.490Z,22.04
2022-08-22T03:58:00.845Z,22.04
2022-08-22T03:59:42.765Z,22.04
2022-08-22T04:01:07.817Z,22.04
2022-08-22T04:02:24.622Z,22.04
2022-08-22T04:03:57.104Z,22.04
2022-08-22T04:05:26.452Z,22.03
2022-08-22T04:06:49.915Z,22.03
2022-08-22T04:08:14.972Z,22.02
2022-08-22T04:09:42.924Z,22.03
2022-08-22T04:11:18.170Z,22.03
2022-08-22T04:12:30.571Z,22.03
2022-08-22T04:14:05.867Z,22.04
2022-08-22T04:15:31.579Z,22.02
2022-08-22T04:16:56.753Z,22.03
2022-08-22T04:18:24.276Z,22.04
2022-08-22T04:19:47.760Z,22.04
2022-08-22T04:21:09.408Z,22.07
2022-08-22T04:22:38.524Z,22.07
2022-08-22T04:24:16.949Z,22.07
2022-08-22T04:25:24.898Z,22.07
2022-08-22T04:26:41.845Z,22.09
2022-08-22T04:27:55.204Z,22.10
2022-08-22T04:29:20.088Z,22.11
2022-08-22T04:30:36.394Z,22.13
2022-08-22T04:31:48.981Z,22.14
2022-08-22T04:32:59.837Z,22.16
2022-08-22T04:34:07.232Z,22.17
2022-08-22T04:35:39.149Z,22.18
2022-08-22T04:36:57.866Z,22.18
2022-08-22T04:38:13.495Z,22.17
2022-08-22T04:39:22.714Z,22.19
2022-08-22T04:40:42.024Z,22.20
2022-08-22T04:41:51.506Z,22.22
2022-08-22T04:42:58.241Z,22.24
2022-08-22T04:44:07.579Z,22.25
2022-08-22T04:45:29.363Z,22.27
2022-08-22T04:46:45.278Z,22.29
2022-08-22T04:47:58.617Z,22.31
2022-08-22T04:49:21.912Z,22.32
2022-08-22T04:50:34.494Z,22.33
2022-08-22T04:51:44.821Z,22.35
2022-08-22T04:53:10.076Z,22.35
2022-08-22T04:54:45.479Z,22.36
2022-08-22T04:56:04.142Z,22.38
2022-08-22T04:57:29.156Z,22.39
2022-08-22T04:58:52.795Z,22.41
2022-08-22T05:00:01.152Z,22.42
2022-08-22T05:01:07.897Z,22.42
2022-08-22T05:02:13.681Z,22.43
2022-08-22T05:03:20.271Z,22.44
2022-08-22T05:04:29.660Z,22.47
2022-08-22T05:05:36.312Z,22.48
2022-08-22T05:06:43.063Z,22.50
2022-08-22T05:07:49.774Z,22.52
2022-08-22T05:08:55.267Z,22.54
2022-08-22T05:10:11.694Z,22.56
2022-08-22T05:11:09.394Z,22.58
2022-08-22T05:12:16.053Z,22.61
2022-08-22T05:13:28.896Z,22.63
2022-08-22T05:14:41.498Z,22.66
2022-08-22T05:15:51.020Z,22.68
2022-08-22T05:16:57.548Z,22.70
2022-08-22T05:18:04.226Z,22.72
2022-08-22T05:19:24.987Z,22.74
2022-08-22T05:20:27.599Z,22.75
2022-08-22T05:21:34.422Z,22.78
2022-08-22T05:22:44.034Z,22.79
2022-08-22T05:23:53.289Z,22.82
2022-08-22T05:25:10.432Z,22.83
2022-08-22T05:26:15.549Z,22.84
2022-08-22T05:27:27.806Z,22.86
2022-08-22T05:28:42.662Z,22.88
2022-08-22T05:29:49.151Z,22.92
2022-08-22T05:30:54.138Z,22.93
2022-08-22T05:32:03.572Z,22.96
2022-08-22T05:33:19.509Z,22.96
2022-08-22T05:34:25.813Z,22.99
2022-08-22T05:35:38.693Z,23.00
2022-08-22T05:36:45.580Z,23.01
2022-08-22T05:37:52.674Z,23.04
2022-08-22T05:39:02.481Z,23.06
2022-08-22T05:40:08.437Z,23.07
2022-08-22T05:41:15.154Z,23.09
2022-08-22T05:42:25.557Z,23.11
2022-08-22T05:43:28.880Z,23.12
2022-08-22T05:44:35.009Z,23.15
2022-08-22T05:45:41.610Z,23.16
2022-08-22T05:46:49.465Z,23.17
2022-08-22T05:48:04.967Z,23.20
2022-08-22T05:49:14.583Z,23.21
2022-08-22T05:50:25.897Z,23.24
2022-08-22T05:52:04.608Z,23.26
2022-08-22T05:53:13.874Z,23.28
2022-08-22T05:54:33.799Z,23.31
2022-08-22T05:55:55.859Z,23.33
2022-08-22T05:57:11.741Z,23.34
2022-08-22T05:58:43.911Z,23.36
2022-08-22T05:59:50.752Z,23.37
2022-08-22T06:01:00.670Z,23.39
2022-08-22T06:02:16.541Z,23.41
2022-08-22T06:03:29.405Z,23.42
2022-08-22T06:04:39.592Z,23.43
2022-08-22T06:05:46.642Z,23.46
2022-08-22T06:07:05.691Z,23.48
2022-08-22T06:08:33.878Z,23.50
2022-08-22T06:09:49.767Z,23.53
2022-08-22T06:10:56.465Z,23.56
2022-08-22T06:12:06.319Z,23.58
2022-08-22T06:13:17.429Z,23.61
2022-08-22T06:14:47.228Z,23.64
2022-08-22T06:16:05.172Z,23.66
2022-08-22T06:17:24.409Z,23.68
2022-08-22T06:18:28.750Z,23.71
2022-08-22T06:19:36.066Z,23.72
2022-08-22T06:20:43.579Z,23.74
2022-08-22T06:21:50.384Z,23.77
2022-08-22T06:22:58.335Z,23.80
2022-08-22T06:24:04.630Z,23.83
2022-08-22T06:25:14.198Z,23.86
2022-08-22T06:26:20.226Z,23.89
2022-08-22T06:27:27.223Z,23.92
2022-08-22T06:28:36.091Z,23.95
2022-08-22T06:29:42.984Z,23.97
2022-08-22T06:30:47.328Z,24.00
2022-08-22T06:31:50.850Z,24.02
2022-08-22T06:32:59.388Z,24.04
2022-08-22T06:34:05.555Z,24.07
2022-08-22T06:35:21.138Z,24.09
2022-08-22T06:36:32.369Z,24.11
2022-08-22T06:37:40.925Z,24.15
2022-08-22T06:39:08.703Z,24.18
2022-08-22T06:40:15.882Z,24.21
2022-08-22T06:41:21.646Z,24.25
2022-08-22T06:42:28.479Z,24.27
2022-08-22T06:43:35.152Z,24.28
2022-08-22T06:44:41.242Z,24.31
2022-08-22T06:45:44.759Z,24.33
2022-08-22T06:46:50.654Z,24.36
2022-08-22T06:48:00.580Z,24.40
2022-08-22T06:49:04.173Z,24.40
2022-08-22T06:50:14.037Z,24.43
2022-08-22T06:51:19.421Z,24.44
2022-08-22T06:52:25.730Z,24.47
2022-08-22T06:53:48.134Z,24.50
2022-08-22T06:54:54.422Z,24.53
2022-08-22T06:56:02.498Z,24.57
2022-08-22T06:57:08.316Z,24.59
2022-08-22T06:58:39.404Z,24.63
2022-08-22T06:59:43.445Z,24.63
2022-08-22T07:00:58.805Z,24.66
2022-08-22T07:02:04.739Z,24.71
2022-08-22T07:03:11.464Z,24.71
2022-08-22T07:04:15.504Z,24.76
2022-08-22T07:05:22.079Z,24.76
2022-08-22T07:06:43.699Z,24.78
2022-08-22T07:07:47.537Z,24.83
2022-08-22T07:08:55.211Z,24.83
2022-08-22T07:09:58.468Z,24.88
2022-08-22T07:11:05.397Z,24.88
2022-08-22T07:12:15.144Z,24.92
2022-08-22T07:13:19.782Z,24.92
2022-08-22T07:14:29.302Z,24.94
2022-08-22T07:15:36.073Z,24.97
2022-08-22T07:16:42.875Z,25.02
2022-08-22T07:17:52.335Z,25.02
2022-08-22T07:18:55.734Z,25.03
2022-08-22T07:20:23.730Z,25.06
2022-08-22T07:21:30.405Z,25.08
2022-08-22T07:22:37.453Z,25.11
2022-08-22T07:23:46.019Z,25.13
2022-08-22T07:24:55.753Z,25.15
2022-08-22T07:26:17.627Z,25.18
2022-08-22T07:27:59.596Z,25.19
2022-08-22T07:29:11.228Z,25.20
2022-08-22T07:30:16.017Z,25.22
2022-08-22T07:31:30.596Z,25.24
2022-08-22T07:32:53.675Z,25.24
2022-08-22T07:34:12.899Z,25.25
2022-08-22T07:35:20.014Z,25.28
2022-08-22T07:36:39.146Z,25.29
2022-08-22T07:38:09.786Z,25.29
2022-08-22T07:39:25.689Z,25.30
2022-08-22T07:40:53.278Z,25.33
2022-08-22T07:42:00.036Z,25.35
2022-08-22T07:43:25.252Z,25.37
2022-08-22T07:45:54.450Z,25.49
2022-08-22T07:47:09.999Z,25.40
2022-08-22T07:48:25.873Z,25.42
2022-08-22T07:49:32.360Z,25.45
2022-08-22T07:50:38.965Z,25.48
2022-08-22T07:51:45.627Z,25.50
2022-08-22T07:52:50.612Z,25.53
2022-08-22T07:54:09.242Z,25.56
2022-08-22T07:55:24.530Z,25.59
2022-08-22T07:56:37.691Z,25.62
2022-08-22T07:57:44.080Z,25.66
2022-08-22T07:58:50.751Z,25.68
2022-08-22T07:59:57.037Z,25.69
2022-08-22T08:01:00.997Z,25.71
2022-08-22T08:02:07.696Z,25.73
2022-08-22T08:03:12.807Z,25.75
2022-08-22T08:04:21.320Z,25.78
2022-08-22T08:05:28.110Z,25.80
2022-08-22T08:06:31.991Z,25.83
2022-08-22T08:07:35.082Z,25.84
2022-08-22T08:08:44.195Z,25.86
2022-08-22T08:09:56.517Z,25.88
2022-08-22T08:11:01.636Z,25.91
2022-08-22T08:12:06.362Z,25.93
2022-08-22T08:13:13.682Z,25.95
2022-08-22T08:14:17.627Z,25.97
2022-08-22T08:15:23.516Z,26.00
2022-08-22T08:16:30.217Z,26.03
2022-08-22T08:17:35.212Z,26.05
2022-08-22T08:18:40.006Z,26.07
2022-08-22T08:19:46.758Z,26.11
2022-08-22T08:20:53.892Z,26.13
2022-08-22T08:21:58.463Z,26.16
2022-08-22T08:23:03.297Z,26.20
2022-08-22T08:24:10.060Z,26.22
2022-08-22T08:25:19.235Z,26.24
2022-08-22T08:26:26.035Z,26.27
2022-08-22T08:28:00.165Z,26.29
2022-08-22T08:28:57.635Z,26.31
2022-08-22T08:30:04.208Z,26.33
2022-08-22T08:32:33.880Z,26.49
2022-08-22T08:33:40.543Z,26.40
2022-08-22T08:34:44.262Z,26.42
2022-08-22T08:36:02.062Z,26.45
2022-08-22T08:37:12.884Z,26.48
2022-08-22T08:38:19.270Z,26.51
2022-08-22T08:39:37.989Z,26.54
2022-08-22T08:40:59.133Z,26.56
2022-08-22T08:42:22.406Z,26.59
2022-08-22T08:43:44.108Z,26.62
2022-08-22T08:45:05.927Z,26.63
2022-08-22T08:46:29.280Z,26.65
2022-08-22T08:48:00.678Z,26.68
2022-08-22T08:49:16.328Z,26.70
2022-08-22T08:50:39.600Z,26.72
2022-08-22T08:52:04.819Z,26.75
2022-08-22T08:53:17.564Z,26.77
2022-08-22T08:54:39.033Z,26.79
2022-08-22T08:55:47.612Z,26.80
2022-08-22T08:57:12.504Z,26.83
2022-08-22T08:59:45.040Z,26.96
2022-08-22T09:01:12.003Z,26.88
2022-08-22T09:02:34.796Z,26.88
2022-08-22T09:06:50.798Z,26.95
2022-08-22T09:08:16.428Z,26.97
2022-08-22T09:09:40.091Z,27.00
2022-08-22T09:11:09.752Z,27.02
2022-08-22T09:12:56.440Z,27.05
2022-08-22T09:14:17.666Z,27.07
2022-08-22T09:15:37.402Z,27.08
2022-08-22T09:16:52.049Z,27.10
2022-08-22T09:18:04.745Z,27.11
2022-08-22T09:19:20.834Z,27.13
2022-08-22T09:20:34.562Z,27.14
2022-08-22T09:22:14.681Z,27.17
2022-08-22T09:23:40.860Z,27.18
2022-08-22T09:25:01.419Z,27.20
2022-08-22T09:26:10.679Z,27.22
2022-08-22T09:27:20.960Z,27.24
2022-08-22T09:28:41.735Z,27.26
2022-08-22T09:29:59.686Z,27.26
2022-08-22T09:31:47.806Z,27.28
2022-08-22T09:32:49.193Z,27.30
2022-08-22T09:33:55.721Z,27.33
2022-08-22T09:35:08.474Z,27.35
2022-08-22T09:36:33.707Z,27.36
2022-08-22T09:37:46.256Z,27.39
2022-08-22T09:38:57.435Z,27.43
2022-08-22T09:40:25.193Z,27.46
2022-08-22T09:41:51.920Z,27.48
2022-08-22T09:43:21.205Z,27.52
2022-08-22T09:44:39.582Z,27.55
2022-08-22T09:45:45.004Z,27.57
2022-08-22T09:46:56.235Z,27.58
2022-08-22T09:48:07.296Z,27.60
2022-08-22T09:49:23.311Z,27.63
2022-08-22T09:50:54.561Z,27.66
2022-08-22T09:52:14.309Z,27.68
2022-08-22T09:53:30.171Z,27.72
2022-08-22T09:54:39.942Z,27.76
2022-08-22T09:55:58.788Z,27.79
2022-08-22T09:57:36.299Z,27.83
2022-08-22T09:59:02.461Z,27.88
2022-08-22T10:00:15.049Z,27.91
2022-08-22T10:01:21.879Z,27.94
2022-08-22T10:02:36.119Z,27.99
2022-08-22T10:04:05.275Z,28.02
2022-08-22T10:05:40.336Z,28.06
2022-08-22T10:06:24.531Z,28.12
2022-08-22T10:07:37.155Z,28.16
2022-08-22T10:08:50.194Z,28.19
2022-08-22T10:10:03.502Z,28.23
2022-08-22T10:11:13.431Z,28.28
2022-08-22T10:12:20.109Z,28.32
2022-08-22T10:13:46.474Z,28.35
2022-08-22T10:14:57.879Z,28.38
2022-08-22T10:16:21.097Z,28.38
2022-08-22T10:17:28.006Z,28.39
2022-08-22T10:19:00.827Z,28.38
2022-08-22T10:20:22.614Z,28.38
2022-08-22T10:21:29.490Z,28.37
2022-08-22T10:23:02.601Z,28.36
2022-08-22T10:24:25.110Z,28.35
2022-08-22T10:25:52.402Z,28.34
2022-08-22T10:26:59.247Z,28.34
2022-08-22T10:28:11.462Z,28.34
2022-08-22T10:29:28.057Z,28.34
2022-08-22T10:30:35.178Z,28.35
2022-08-22T10:31:59.174Z,28.38
2022-08-22T10:33:02.805Z,28.39
2022-08-22T10:34:10.219Z,28.39
2022-08-22T10:35:22.696Z,28.42
2022-08-22T10:36:40.412Z,28.42
2022-08-22T10:37:58.567Z,28.44
2022-08-22T10:39:11.083Z,28.45
2022-08-22T10:42:10.921Z,28.56
2022-08-22T10:43:29.929Z,28.45
2022-08-22T10:44:59.273Z,28.44
2022-08-22T10:46:12.469Z,28.42
2022-08-22T10:47:20.438Z,28.39
2022-08-22T10:48:36.308Z,28.38
2022-08-22T10:49:55.512Z,28.37
2022-08-22T10:51:19.858Z,28.38
2022-08-22T10:52:35.836Z,28.38
2022-08-22T10:53:57.416Z,28.40
2022-08-22T10:55:09.839Z,28.41
2022-08-22T10:56:29.283Z,28.44
2022-08-22T10:57:42.190Z,28.46
2022-08-22T10:58:55.647Z,28.51
2022-08-22T11:00:04.965Z,28.54
2022-08-22T11:01:37.070Z,28.59
2022-08-22T11:02:26.304Z,28.65
2022-08-22T11:03:49.363Z,28.69
2022-08-22T11:05:10.939Z,28.72
2022-08-22T11:06:45.363Z,28.77
2022-08-22T11:08:01.817Z,28.78
2022-08-22T11:09:20.525Z,28.80
2022-08-22T11:10:32.890Z,28.80
2022-08-22T11:11:44.323Z,28.81
2022-08-22T11:12:54.127Z,28.82
2022-08-22T11:14:17.124Z,28.82
2022-08-22T11:15:46.243Z,28.82
2022-08-22T11:17:23.647Z,28.84
2022-08-22T11:18:20.028Z,28.85
2022-08-22T11:19:39.063Z,28.87
2022-08-22T11:20:58.566Z,28.90
2022-08-22T11:22:27.573Z,28.92
2022-08-22T11:23:48.331Z,28.95
2022-08-22T11:25:14.825Z,28.97
2022-08-22T11:26:30.077Z,29.00
2022-08-22T11:27:52.234Z,29.02
2022-08-22T11:29:13.167Z,29.05
2022-08-22T11:30:18.383Z,29.06
2022-08-22T11:31:27.627Z,29.07
2022-08-22T11:32:36.117Z,29.06
2022-08-22T11:33:51.857Z,29.06
2022-08-22T11:35:04.845Z,29.04
2022-08-22T11:36:19.719Z,29.02
2022-08-22T11:37:48.014Z,29.01
2022-08-22T11:39:18.464Z,28.99
2022-08-22T11:40:37.640Z,28.98
2022-08-22T11:41:53.507Z,28.96
2022-08-22T11:43:35.772Z,28.96
2022-08-22T11:44:59.766Z,28.98
2022-08-22T11:46:19.822Z,28.98
2022-08-22T11:47:26.550Z,29.02
2022-08-22T11:48:55.145Z,29.06
2022-08-22T11:50:01.716Z,29.12
2022-08-22T11:51:13.575Z,29.18
2022-08-22T11:53:01.684Z,29.25
2022-08-22T11:53:57.254Z,29.29
2022-08-22T11:55:32.523Z,29.38
2022-08-22T11:56:40.142Z,29.44
2022-08-22T11:57:49.762Z,29.49
2022-08-22T11:59:09.209Z,29.53
2022-08-22T12:00:25.991Z,29.57
2022-08-22T12:01:52.238Z,29.59
2022-08-22T12:03:01.963Z,29.61
2022-08-22T12:04:18.823Z,29.61
2022-08-22T12:05:26.440Z,29.62
2022-08-22T12:07:00.609Z,29.62
2022-08-22T12:08:11.381Z,29.62
2022-08-22T12:09:21.084Z,29.63
2022-08-22T12:10:32.168Z,29.63
2022-08-22T12:12:01.345Z,29.63
2022-08-22T12:13:12.971Z,29.65
2022-08-22T12:14:21.009Z,29.67
2022-08-22T12:15:29.585Z,29.70
2022-08-22T12:16:56.177Z,29.72
2022-08-22T12:18:21.406Z,29.75
2022-08-22T12:19:33.089Z,29.79
2022-08-22T12:20:58.592Z,29.83
2022-08-22T12:22:34.189Z,29.87
2022-08-22T12:23:55.902Z,29.92
2022-08-22T12:25:03.298Z,29.97
2022-08-22T12:26:19.309Z,30.01
2022-08-22T12:27:30.992Z,30.05
2022-08-22T12:28:43.589Z,30.10
2022-08-22T12:30:13.894Z,30.10
2022-08-22T12:31:35.781Z,30.15
2022-08-22T12:32:43.738Z,30.19
2022-08-22T12:33:59.800Z,30.22
2022-08-22T12:35:14.010Z,30.22
2022-08-22T12:36:21.614Z,30.25
2022-08-22T12:37:52.247Z,30.26
2022-08-22T12:38:54.771Z,30.27
2022-08-22T12:40:19.658Z,30.28
2022-08-22T12:41:46.801Z,30.28
2022-08-22T12:43:02.201Z,30.27
2022-08-22T12:44:28.293Z,30.25
2022-08-22T12:45:36.999Z,30.25
2022-08-22T12:47:04.348Z,30.24
2022-08-22T12:48:22.541Z,30.24
2022-08-22T12:49:34.413Z,30.24
2022-08-22T12:50:47.762Z,30.22
2022-08-22T12:52:09.448Z,30.22
2022-08-22T12:53:34.201Z,30.21
2022-08-22T12:54:50.044Z,30.19
2022-08-22T12:55:56.635Z,30.18
2022-08-22T12:58:42.736Z,30.24
2022-08-22T12:59:50.581Z,30.13
2022-08-22T13:00:57.390Z,30.10
2022-08-22T13:02:04.646Z,30.10
2022-08-22T13:03:11.314Z,30.09
2022-08-22T13:04:33.003Z,30.08
2022-08-22T13:05:34.223Z,30.07
2022-08-22T13:06:43.491Z,30.07
2022-08-22T13:08:04.358Z,30.07
2022-08-22T13:09:28.506Z,30.07
2022-08-22T13:10:43.006Z,30.06
2022-08-22T13:11:51.573Z,30.06
2022-08-22T13:12:57.919Z,30.06
2022-08-22T13:14:02.278Z,30.05
2022-08-22T13:15:10.902Z,30.05
2022-08-22T13:16:19.005Z,30.04
2022-08-22T13:17:24.308Z,30.04
2022-08-22T13:18:37.956Z,30.04
2022-08-22T13:20:01.360Z,30.04
2022-08-22T13:21:10.389Z,30.04
2022-08-22T13:22:15.858Z,30.03
2022-08-22T13:23:43.848Z,30.05
2022-08-22T13:25:08.851Z,30.05
2022-08-22T13:26:32.158Z,30.06
2022-08-22T13:27:31.119Z,30.07
2022-08-22T13:28:37.781Z,30.07
2022-08-22T13:29:47.146Z,30.09
2022-08-22T13:30:52.852Z,30.10
2022-08-22T13:32:02.393Z,30.13
2022-08-22T13:33:09.933Z,30.16
2022-08-22T13:34:39.436Z,30.19
2022-08-22T13:35:51.707Z,30.23
2022-08-22T13:36:58.615Z,30.29
2022-08-22T13:38:12.246Z,30.32
2022-08-22T13:39:19.693Z,30.37
2022-08-22T13:40:29.291Z,30.42
2022-08-22T13:41:39.171Z,30.47
2022-08-22T13:42:50.234Z,30.52
2022-08-22T13:44:10.826Z,30.56
2022-08-22T13:45:17.625Z,30.61
2022-08-22T13:46:31.345Z,30.66
2022-08-22T13:47:40.038Z,30.72
2022-08-22T13:48:47.060Z,30.76
2022-08-22T13:49:55.478Z,30.81
2022-08-22T13:51:05.468Z,30.84
2022-08-22T13:52:36.939Z,30.89
2022-08-22T13:53:50.008Z,30.93
2022-08-22T13:55:04.623Z,30.99
2022-08-22T13:56:19.737Z,31.03
2022-08-22T13:57:42.218Z,31.09
2022-08-22T13:58:48.437Z,31.13
2022-08-22T14:00:28.638Z,31.17
2022-08-22T14:01:38.115Z,31.21
2022-08-22T14:03:02.738Z,31.27
2022-08-22T14:04:35.762Z,31.30
2022-08-22T14:05:43.947Z,31.36
2022-08-22T14:06:50.744Z,31.40
2022-08-22T14:08:01.466Z,31.45
2022-08-22T14:10:31.098Z,31.63
2022-08-22T14:11:43.804Z,31.55
2022-08-22T14:12:53.337Z,31.58
2022-08-22T14:13:59.619Z,31.61
2022-08-22T14:15:08.859Z,31.63
2022-08-22T14:16:24.676Z,31.66
2022-08-22T14:17:42.830Z,31.68
2022-08-22T14:18:58.757Z,31.69
2022-08-22T14:21:28.458Z,31.79
2022-08-22T14:22:36.567Z,31.69
2022-08-22T14:23:40.198Z,31.68
2022-08-22T14:24:55.902Z,31.67
2022-08-22T14:25:57.178Z,31.67
2022-08-22T14:27:09.681Z,31.66
2022-08-22T14:28:28.192Z,31.65
2022-08-22T14:29:34.908Z,31.64
2022-08-22T14:31:00.662Z,31.61
2022-08-22T14:32:22.996Z,31.61
2022-08-22T14:33:45.896Z,31.59
2022-08-22T14:34:54.029Z,31.56
2022-08-22T14:36:02.050Z,31.55
2022-08-22T14:37:12.539Z,31.53
2022-08-22T14:38:30.178Z,31.52
2022-08-22T14:39:36.907Z,31.51
2022-08-22T14:40:43.681Z,31.50
2022-08-22T14:41:52.346Z,31.49
2022-08-22T14:43:22.445Z,31.47
2022-08-22T14:44:28.720Z,31.47
2022-08-22T14:45:35.488Z,31.46
2022-08-22T14:46:58.879Z,31.43
2022-08-22T14:48:30.142Z,31.41
2022-08-22T14:49:51.201Z,31.38
2022-08-22T14:50:59.179Z,31.36
2022-08-22T14:52:08.946Z,31.31
2022-08-22T14:53:25.183Z,31.28
2022-08-22T14:54:29.541Z,31.25
2022-08-22T14:55:33.261Z,31.23
2022-08-22T14:56:38.255Z,31.20
2022-08-22T14:58:00.275Z,31.17
2022-08-22T14:59:08.693Z,31.14
2022-08-22T15:00:15.435Z,31.10
2022-08-22T15:01:24.255Z,31.06
2022-08-22T15:02:31.432Z,31.01
2022-08-22T15:03:38.116Z,30.97
2022-08-22T15:04:45.777Z,30.93
2022-08-22T15:05:53.492Z,30.89
2022-08-22T15:06:58.725Z,30.86
2022-08-22T15:08:01.966Z,30.82
2022-08-22T15:09:10.773Z,30.78
2022-08-22T15:10:34.102Z,30.75
2022-08-22T15:11:42.141Z,30.72
2022-08-22T15:12:50.688Z,30.67
2022-08-22T15:14:06.217Z,30.63
2022-08-22T15:15:13.192Z,30.60
2022-08-22T15:16:20.063Z,30.57
2022-08-22T15:17:39.488Z,30.53
2022-08-22T15:18:51.429Z,30.49
2022-08-22T15:19:52.100Z,30.47
2022-08-22T15:21:24.469Z,30.42
2022-08-22T15:22:28.262Z,30.41
2022-08-22T15:23:32.873Z,30.36
2022-08-22T15:24:44.428Z,30.32
2022-08-22T15:26:00.113Z,30.30
2022-08-22T15:27:06.917Z,30.26
2022-08-22T15:28:19.999Z,30.23
2022-08-22T15:29:24.772Z,30.19
2022-08-22T15:30:35.410Z,30.17
2022-08-22T15:31:43.419Z,30.13
2022-08-22T15:32:46.123Z,30.11
2022-08-22T15:33:50.753Z,30.08
2022-08-22T15:35:06.389Z,30.06
2022-08-22T15:36:16.761Z,30.03
2022-08-22T15:37:23.416Z,30.01
2022-08-22T15:38:32.407Z,29.98
2022-08-22T15:39:57.556Z,29.96
2022-08-22T15:41:24.025Z,29.94
2022-08-22T15:42:30.911Z,29.90
2022-08-22T15:43:37.143Z,29.87
2022-08-22T15:44:44.210Z,29.83
2022-08-22T15:45:50.288Z,29.80
2022-08-22T15:47:00.883Z,29.77
2022-08-22T15:48:10.728Z,29.76
2022-08-22T15:49:23.580Z,29.73
2022-08-22T15:50:30.753Z,29.70
2022-08-22T15:51:46.428Z,29.67
2022-08-22T15:53:10.268Z,29.64
2022-08-22T15:54:24.932Z,29.62
2022-08-22T15:55:28.380Z,29.58
2022-08-22T15:56:38.982Z,29.55
2022-08-22T15:57:50.968Z,29.53
2022-08-22T15:59:26.318Z,29.50
2022-08-22T16:00:43.583Z,29.47
2022-08-22T16:01:49.845Z,29.43
2022-08-22T16:02:58.022Z,29.39
2022-08-22T16:04:11.034Z,29.36
2022-08-22T16:05:17.622Z,29.33
2022-08-22T16:06:46.674Z,29.32
2022-08-22T16:07:59.300Z,29.29
2022-08-22T16:09:03.176Z,29.26
2022-08-22T16:10:13.006Z,29.23
2022-08-22T16:11:32.935Z,29.21
2022-08-22T16:12:40.787Z,29.18
2022-08-22T16:13:45.027Z,29.16
2022-08-22T16:14:50.130Z,29.14